Airfield :
LOGIN :

Register | Disclaimer

   EN    FR    IT 

 










Legend :    VFR   Marginal VFR   IFR   Intensive IFR   Very Intensive IFR
Visi :
Ceiling :
>= 8 km
>= 3000ft
5 to 8 km
1000 to 3000 ft
1500m to 5 km
500 to 1000 ft
800 to 1500m
200 to 500 ft
< 800m
< 200 ft
Symbols :   Thunderstorms  Fog  Heavy snow  Heavy precipitations  Wind > 20 kt
SIGMETs :     Misc.  Thunderstorms  Icing  Turbulence  Mountain Waves  Volcanic Ashes







- Airport Elevation : 600 ft
- IATA code : VIE


LOWW - Vienna Schwechat

CURRENT METAR :
  • 270550Z 32010KT CAVOK 28/19 Q1019 NOSIG

EXPIRED METARs :
  • 270520Z 33004KT 290V350 CAVOK 28/18 Q1019 NOSIG
  • 270450Z 26006KT 240V300 CAVOK 27/17 Q1019 NOSIG
  • 270420Z 18004KT CAVOK 23/18 Q1019 BECMG 29012KT
  • 270350Z 17004KT CAVOK 22/17 Q1019 BECMG 29012KT
  • 270320Z 17004KT CAVOK 21/17 Q1019 BECMG 29012KT

TAF TAF LOWW
Valid from the 27 at 06:00 until the 28 at 12:00 UTC


270515Z 2706/2812 29010KT CAVOK TX32/2712Z TN17/2803Z
TEMPO 2711/2716 33015G25KT 9999 FEW050CB SCT300
BECMG 2716/2718 35012KT
No reported NOTAMs for that airfield.



MET'MAP, your aeronautical weather chart ! - Copyright ORBIFLY December 2007 - Disclaimer

ORBIFLY MET'MAP TEAM :

Programming & Development : Alexandra Zaïnal
Concept & Development : Baudouin d'Aumeries
Co-Development & Prog : Marc-Olivier Méhu
Technical & hardware support : Manuel Goepfert

Contact : metmap@orbifly.com




SOURCES & CREDITS :

   NOAA